Terminal Aerodrome Forecast
Issued by NWS Austin/San Antonio, TX

Home | Current Version | Previous Version | Text Only | Print | Product List | Glossary On
Versions: 1 2 3 4 5 6 7 8 9 10 11 12 13 14 15 16 17 18 19 20 21 22 23 24 25 26 27 28 29 30 31 32 33 34
015
FTUS44 KEWX 210536
TAFAUS
TAF
KAUS 210536Z 2106/2212 23003KT P6SM FEW150
     FM211000 19004KT 4SM BR OVC015
     FM211100 21003KT 1/2SM FG OVC003
     FM211500 22013KT 4SM BR OVC006
     FM211700 22014KT P6SM BKN250=

USA.gov is the U.S. government's official web portal to all federal, state and local government web resources and services.